Time;durP1;ratioP1;P1;durP2;ratioP2;P2;SDS_P1;SDS_P2;PMS_P1;PMS_P2;Temp;Humidity;BMP_temperature;BMP_pressure;BME280_temperature;BME280_humidity;BME280_pressure;Samples;Min_cycle;Max_cycle;Signal;HPM_P1;HPM_P2
2024/01/10 00:02:00;;;;;;;;;;;17.30;61.40;;;;;;5039665;28;1468;-66
2024/01/10 00:04:26;;;;;;;;;;;17.30;61.50;;;;;;5046048;28;1524;-66
2024/01/10 00:06:51;;;;;;;;;;;17.30;61.40;;;;;;5039333;28;1283;-66
2024/01/10 00:09:17;;;;;;;;;;;17.30;61.40;;;;;;5040913;28;1389;-66
2024/01/10 00:11:42;;;;;;;;;;;17.30;61.40;;;;;;5040341;28;1363;-66
2024/01/10 00:14:09;;;;;;;;;;;17.30;61.50;;;;;;5042065;28;1971;-66
2024/01/10 00:16:34;;;;;;;;;;;17.30;61.50;;;;;;5040217;28;1432;-66
2024/01/10 00:19:00;;;;;;;;;;;17.30;61.50;;;;;;5041936;28;1270;-66
2024/01/10 00:21:26;;;;;;;;;;;17.30;61.40;;;;;;5038819;28;1448;-65
2024/01/10 00:23:51;;;;;;;;;;;17.30;61.50;;;;;;5040947;28;1287;-67
2024/01/10 00:26:17;;;;;;;;;;;17.30;61.50;;;;;;5040341;28;1228;-65
2024/01/10 00:28:42;;;;;;;;;;;17.30;61.50;;;;;;5038375;28;1342;-66
2024/01/10 00:31:08;;;;;;;;;;;17.30;61.50;;;;;;5038907;28;1661;-65
2024/01/10 00:33:33;;;;;;;;;;;17.30;61.50;;;;;;5039417;28;1902;-68
2024/01/10 00:35:59;;;;;;;;;;;17.30;61.60;;;;;;5041465;28;1593;-67
2024/01/10 00:38:24;;;;;;;;;;;17.30;61.50;;;;;;5040854;28;1379;-67
2024/01/10 00:40:49;;;;;;;;;;;17.30;61.50;;;;;;5042169;28;1582;-67
2024/01/10 00:43:15;;;;;;;;;;;17.30;61.60;;;;;;5037135;28;1652;-66
2024/01/10 00:45:40;;;;;;;;;;;17.30;61.60;;;;;;5040294;28;1662;-65
2024/01/10 00:48:06;;;;;;;;;;;17.30;61.60;;;;;;5039137;28;1833;-65
2024/01/10 00:50:31;;;;;;;;;;;17.30;61.60;;;;;;5038231;28;1444;-68
2024/01/10 00:52:57;;;;;;;;;;;17.30;61.60;;;;;;5053546;28;1717;-66
2024/01/10 00:55:22;;;;;;;;;;;17.30;61.60;;;;;;5037899;28;1965;-66
2024/01/10 00:57:48;;;;;;;;;;;17.30;61.60;;;;;;5071628;28;1319;-69
2024/01/10 01:00:14;;;;;;;;;;;17.30;61.60;;;;;;5040103;28;1328;-65
2024/01/10 01:02:39;;;;;;;;;;;17.30;61.60;;;;;;5037945;28;1711;-66
2024/01/10 01:05:05;;;;;;;;;;;17.30;61.60;;;;;;5037445;28;1857;-65
2024/01/10 01:07:30;;;;;;;;;;;17.30;61.70;;;;;;5069033;28;1527;-66
2024/01/10 01:09:56;;;;;;;;;;;17.20;61.50;;;;;;5041186;28;1350;-64
2024/01/10 01:12:21;;;;;;;;;;;17.30;61.60;;;;;;5040393;28;1552;-68
2024/01/10 01:14:47;;;;;;;;;;;17.20;61.60;;;;;;5038883;28;1965;-66
2024/01/10 01:17:12;;;;;;;;;;;17.20;61.60;;;;;;5035230;28;1285;-67
2024/01/10 01:19:38;;;;;;;;;;;17.20;61.60;;;;;;5038578;28;1488;-66
2024/01/10 01:22:03;;;;;;;;;;;17.20;61.60;;;;;;5040360;28;1483;-67
2024/01/10 01:24:28;;;;;;;;;;;17.20;61.60;;;;;;5038181;28;1585;-70
2024/01/10 01:26:54;;;;;;;;;;;17.30;61.70;;;;;;5039916;28;1665;-65
2024/01/10 01:29:20;;;;;;;;;;;17.20;61.60;;;;;;5070421;28;1425;-66
2024/01/10 01:31:45;;;;;;;;;;;17.20;61.60;;;;;;5039900;28;1531;-65
2024/01/10 01:34:11;;;;;;;;;;;17.20;61.60;;;;;;5038390;28;1886;-65
2024/01/10 01:36:36;;;;;;;;;;;17.20;61.60;;;;;;5039806;28;1522;-65
2024/01/10 01:39:02;;;;;;;;;;;17.20;61.60;;;;;;5038396;28;1572;-65
2024/01/10 01:41:27;;;;;;;;;;;17.20;61.70;;;;;;5039022;28;1542;-67
2024/01/10 01:43:53;;;;;;;;;;;17.20;61.60;;;;;;5041398;28;1776;-64
2024/01/10 01:46:18;;;;;;;;;;;17.20;61.60;;;;;;5040436;28;1481;-65
2024/01/10 01:48:43;;;;;;;;;;;17.20;61.60;;;;;;5070954;28;1426;-68
2024/01/10 01:51:09;;;;;;;;;;;17.20;61.60;;;;;;5040592;28;1180;-66
2024/01/10 01:53:35;;;;;;;;;;;17.20;61.70;;;;;;5065720;28;1890;-64
2024/01/10 01:56:03;;;;;;;;;;;17.20;61.70;;;;;;5040052;28;1484;-66
2024/01/10 01:58:28;;;;;;;;;;;17.20;62.50;;;;;;5070625;28;1470;-64
2024/01/10 02:00:54;;;;;;;;;;;17.20;61.70;;;;;;5038883;28;1389;-66
2024/01/10 02:03:19;;;;;;;;;;;17.20;61.70;;;;;;5040935;28;1636;-65
2024/01/10 02:05:45;;;;;;;;;;;17.20;61.70;;;;;;5040904;28;1398;-64
2024/01/10 02:08:11;;;;;;;;;;;17.20;61.70;;;;;;5038474;28;1349;-66
2024/01/10 02:10:36;;;;;;;;;;;17.20;61.70;;;;;;5038929;28;1407;-64
2024/01/10 02:13:02;;;;;;;;;;;17.20;61.70;;;;;;5039342;28;1491;-66
2024/01/10 02:15:27;;;;;;;;;;;17.20;61.70;;;;;;5036999;28;1941;-64
2024/01/10 02:17:53;;;;;;;;;;;17.20;61.70;;;;;;5039072;28;1358;-65
2024/01/10 02:20:20;;;;;;;;;;;17.20;61.70;;;;;;5044169;28;952;-65
2024/01/10 02:22:46;;;;;;;;;;;17.20;61.70;;;;;;5073586;28;1086;-65
2024/01/10 02:25:11;;;;;;;;;;;17.20;61.80;;;;;;5076889;28;1385;-64
2024/01/10 02:27:37;;;;;;;;;;;17.20;61.80;;;;;;5043966;28;1315;-65
2024/01/10 02:30:03;;;;;;;;;;;17.20;61.80;;;;;;5076933;28;1390;-66
2024/01/10 02:32:28;;;;;;;;;;;17.20;61.80;;;;;;5044738;28;1203;-66
2024/01/10 02:34:54;;;;;;;;;;;17.20;61.80;;;;;;5045140;28;1971;-66
2024/01/10 02:37:19;;;;;;;;;;;17.10;61.70;;;;;;5045248;28;1451;-66
2024/01/10 02:39:45;;;;;;;;;;;17.20;61.80;;;;;;5047522;28;1324;-69
2024/01/10 02:42:11;;;;;;;;;;;17.20;61.80;;;;;;5043847;28;1771;-68
2024/01/10 02:44:36;;;;;;;;;;;17.10;61.70;;;;;;5075382;28;1643;-64
2024/01/10 02:47:02;;;;;;;;;;;17.10;62.50;;;;;;5045134;28;1478;-65
2024/01/10 02:49:27;;;;;;;;;;;17.10;61.80;;;;;;5043390;28;1556;-67
2024/01/10 02:51:53;;;;;;;;;;;17.10;61.70;;;;;;5045495;28;1555;-65
2024/01/10 02:54:18;;;;;;;;;;;17.10;61.70;;;;;;5045372;28;1902;-65
2024/01/10 02:56:43;;;;;;;;;;;17.10;61.70;;;;;;5044937;28;1443;-67
2024/01/10 02:59:09;;;;;;;;;;;17.10;61.70;;;;;;5044030;28;1416;-68
2024/01/10 03:01:34;;;;;;;;;;;17.10;61.80;;;;;;5045371;28;1364;-65
2024/01/10 03:04:00;;;;;;;;;;;17.10;61.70;;;;;;5042670;28;1407;-64
2024/01/10 03:06:25;;;;;;;;;;;17.10;61.80;;;;;;5043311;28;1612;-70
2024/01/10 03:08:51;;;;;;;;;;;17.10;61.80;;;;;;5041302;28;1426;-65
2024/01/10 03:11:16;;;;;;;;;;;17.10;61.80;;;;;;5045793;28;1523;-67
2024/01/10 03:13:43;;;;;;;;;;;17.10;61.80;;;;;;5043318;28;1919;-64
2024/01/10 03:16:09;;;;;;;;;;;17.10;61.80;;;;;;5045874;28;1450;-66
2024/01/10 03:18:34;;;;;;;;;;;17.10;61.80;;;;;;5052206;28;1276;-65
2024/01/10 03:21:00;;;;;;;;;;;17.10;61.80;;;;;;5042201;28;1448;-68
2024/01/10 03:23:26;;;;;;;;;;;17.10;61.80;;;;;;5072797;28;1464;-66
2024/01/10 03:25:52;;;;;;;;;;;17.10;61.80;;;;;;5044647;28;1628;-65
2024/01/10 03:28:17;;;;;;;;;;;17.10;61.80;;;;;;5042762;28;1166;-66
2024/01/10 03:30:43;;;;;;;;;;;17.10;61.80;;;;;;5041184;28;1237;-66
2024/01/10 03:33:08;;;;;;;;;;;17.10;61.80;;;;;;5040205;28;1749;-66
2024/01/10 03:35:34;;;;;;;;;;;17.10;61.80;;;;;;5040568;28;1898;-66
2024/01/10 03:37:59;;;;;;;;;;;17.10;61.80;;;;;;5042658;28;1456;-66
2024/01/10 03:40:25;;;;;;;;;;;17.10;61.80;;;;;;5041234;28;1572;-66
2024/01/10 03:42:50;;;;;;;;;;;17.10;62.50;;;;;;5039589;28;1401;-66
2024/01/10 03:45:19;;;;;;;;;;;17.10;61.80;;;;;;5037565;28;1185;-65
2024/01/10 03:47:46;;;;;;;;;;;17.10;61.80;;;;;;5039559;28;1254;-67
2024/01/10 03:50:11;;;;;;;;;;;17.10;61.80;;;;;;5020773;28;1534;-64
2024/01/10 03:52:37;;;;;;;;;;;17.10;61.80;;;;;;5039543;28;1287;-66
2024/01/10 03:55:02;;;;;;;;;;;17.10;61.80;;;;;;5044737;28;1969;-67
2024/01/10 03:57:28;;;;;;;;;;;17.10;61.80;;;;;;5041932;28;1288;-64
2024/01/10 03:59:53;;;;;;;;;;;17.10;61.80;;;;;;5041763;28;1446;-65
2024/01/10 04:02:19;;;;;;;;;;;17.10;61.80;;;;;;5042715;28;935;-69
2024/01/10 04:04:44;;;;;;;;;;;17.10;61.80;;;;;;5042232;28;1564;-65
2024/01/10 04:07:10;;;;;;;;;;;17.10;61.80;;;;;;5042106;28;1452;-65
2024/01/10 04:09:35;;;;;;;;;;;17.10;61.80;;;;;;5043168;28;1613;-66
2024/01/10 04:12:01;;;;;;;;;;;17.10;61.80;;;;;;5042581;28;1294;-66
2024/01/10 04:14:26;;;;;;;;;;;17.10;61.80;;;;;;5041250;28;1973;-66
2024/01/10 04:16:53;;;;;;;;;;;17.10;61.80;;;;;;5038748;28;1533;-66
2024/01/10 04:19:18;;;;;;;;;;;17.10;61.80;;;;;;5044240;28;1506;-65
2024/01/10 04:21:44;;;;;;;;;;;17.10;61.80;;;;;;5057773;28;1349;-67
2024/01/10 04:24:09;;;;;;;;;;;17.10;61.80;;;;;;5041718;28;1653;-66
2024/01/10 04:26:34;;;;;;;;;;;17.10;61.90;;;;;;5044511;28;1356;-65
2024/01/10 04:29:00;;;;;;;;;;;17.10;61.80;;;;;;5043151;28;1522;-67
2024/01/10 04:31:25;;;;;;;;;;;17.10;61.80;;;;;;5039230;28;1096;-65
2024/01/10 04:33:51;;;;;;;;;;;17.10;61.80;;;;;;5072732;28;1898;-67
2024/01/10 04:36:16;;;;;;;;;;;17.10;61.80;;;;;;5038374;28;1565;-66
2024/01/10 04:38:42;;;;;;;;;;;17.10;61.80;;;;;;5036795;28;831;-68
2024/01/10 04:41:07;;;;;;;;;;;17.10;61.80;;;;;;5040275;28;1312;-66
2024/01/10 04:43:36;;;;;;;;;;;17.00;61.80;;;;;;5039782;28;1459;-69
2024/01/10 04:46:01;;;;;;;;;;;17.10;61.80;;;;;;5047915;28;1379;-66
2024/01/10 04:48:27;;;;;;;;;;;17.10;61.80;;;;;;5040491;28;1448;-68
2024/01/10 04:50:52;;;;;;;;;;;17.10;61.90;;;;;;5041872;28;1341;-68
2024/01/10 04:53:18;;;;;;;;;;;17.00;61.80;;;;;;5043287;28;1540;-67
2024/01/10 04:55:44;;;;;;;;;;;17.00;61.80;;;;;;5069882;28;1977;-66
2024/01/10 04:58:09;;;;;;;;;;;17.10;61.80;;;;;;5038449;28;1788;-65
2024/01/10 05:00:35;;;;;;;;;;;17.00;61.80;;;;;;5036525;28;1492;-66
2024/01/10 05:03:01;;;;;;;;;;;17.00;61.80;;;;;;5038466;28;1359;-66
2024/01/10 05:05:26;;;;;;;;;;;17.00;61.80;;;;;;5037011;28;1289;-64
2024/01/10 05:07:51;;;;;;;;;;;17.00;61.80;;;;;;5038897;28;1044;-63
2024/01/10 05:10:17;;;;;;;;;;;17.10;61.90;;;;;;5038778;28;1379;-65
2024/01/10 05:12:42;;;;;;;;;;;17.00;61.70;;;;;;5038257;28;992;-64
2024/01/10 05:15:08;;;;;;;;;;;17.10;61.70;;;;;;5037478;28;1980;-64
2024/01/10 05:17:33;;;;;;;;;;;17.10;61.60;;;;;;5039714;28;1338;-67
2024/01/10 05:19:59;;;;;;;;;;;17.10;61.50;;;;;;5041222;28;1259;-67
2024/01/10 05:22:24;;;;;;;;;;;17.20;61.40;;;;;;5039387;28;1686;-65
2024/01/10 05:24:50;;;;;;;;;;;17.20;61.30;;;;;;5037836;28;1658;-65
2024/01/10 05:27:16;;;;;;;;;;;17.20;61.10;;;;;;5038568;28;1322;-64
2024/01/10 05:29:41;;;;;;;;;;;17.30;61.00;;;;;;5036945;28;1514;-67
2024/01/10 05:32:06;;;;;;;;;;;17.30;60.90;;;;;;5038170;28;1464;-66
2024/01/10 05:34:32;;;;;;;;;;;17.40;60.80;;;;;;5039671;28;1898;-64
2024/01/10 05:36:57;;;;;;;;;;;17.40;60.60;;;;;;5038065;28;1424;-67
2024/01/10 05:39:23;;;;;;;;;;;17.40;60.50;;;;;;5036595;28;1633;-64
2024/01/10 05:41:48;;;;;;;;;;;17.50;60.40;;;;;;5040100;28;1493;-65
2024/01/10 05:44:14;;;;;;;;;;;17.50;60.30;;;;;;5047806;28;1835;-68
2024/01/10 05:46:40;;;;;;;;;;;17.50;60.20;;;;;;5034146;28;1203;-68
2024/01/10 05:49:06;;;;;;;;;;;17.50;60.10;;;;;;5036507;28;1202;-67
2024/01/10 05:51:32;;;;;;;;;;;17.50;60.10;;;;;;5038461;28;1297;-68
2024/01/10 05:53:58;;;;;;;;;;;17.60;60.00;;;;;;5037188;28;1962;-67
2024/01/10 05:56:23;;;;;;;;;;;17.60;60.00;;;;;;5036985;28;1327;-67
2024/01/10 05:58:50;;;;;;;;;;;17.60;59.90;;;;;;5039947;28;1473;-66
2024/01/10 06:01:16;;;;;;;;;;;17.60;59.80;;;;;;5037059;28;1250;-64
2024/01/10 06:03:42;;;;;;;;;;;17.60;59.80;;;;;;5038039;28;1308;-68
2024/01/10 06:06:07;;;;;;;;;;;17.60;59.80;;;;;;5038502;28;1563;-65
2024/01/10 06:08:33;;;;;;;;;;;17.70;59.80;;;;;;5038915;28;1333;-67
2024/01/10 06:10:58;;;;;;;;;;;17.70;59.80;;;;;;5037606;28;1438;-67
2024/01/10 06:13:24;;;;;;;;;;;17.70;59.70;;;;;;5039863;28;1383;-67
2024/01/10 06:15:50;;;;;;;;;;;17.70;59.70;;;;;;5036341;28;1942;-65
2024/01/10 06:18:15;;;;;;;;;;;17.70;59.60;;;;;;5040873;28;1450;-66
2024/01/10 06:20:41;;;;;;;;;;;17.70;59.60;;;;;;5036432;28;1323;-65
2024/01/10 06:23:06;;;;;;;;;;;17.70;59.60;;;;;;5037428;28;1448;-65
2024/01/10 06:25:32;;;;;;;;;;;17.70;59.60;;;;;;5035792;28;1646;-65
2024/01/10 06:27:57;;;;;;;;;;;17.70;59.60;;;;;;5039469;28;1440;-66
2024/01/10 06:30:23;;;;;;;;;;;17.70;59.50;;;;;;5067964;28;1379;-67
2024/01/10 06:32:48;;;;;;;;;;;17.70;59.50;;;;;;5042036;28;1383;-65
2024/01/10 06:35:14;;;;;;;;;;;17.70;59.50;;;;;;5038747;28;1903;-65
2024/01/10 06:37:40;;;;;;;;;;;17.70;59.50;;;;;;5038905;28;1393;-65
2024/01/10 06:40:06;;;;;;;;;;;17.70;59.50;;;;;;5037757;28;1460;-66
2024/01/10 06:42:31;;;;;;;;;;;17.70;59.50;;;;;;5038889;28;1469;-65
2024/01/10 06:44:57;;;;;;;;;;;17.70;59.40;;;;;;5038418;28;1631;-65
2024/01/10 06:47:22;;;;;;;;;;;17.70;59.50;;;;;;5035983;28;1467;-65
2024/01/10 06:49:48;;;;;;;;;;;17.70;59.40;;;;;;5034882;28;1292;-65
2024/01/10 06:52:13;;;;;;;;;;;17.70;59.40;;;;;;5045587;28;1274;-65
2024/01/10 06:54:38;;;;;;;;;;;17.70;59.40;;;;;;5037573;28;1906;-67
2024/01/10 06:57:04;;;;;;;;;;;17.70;59.50;;;;;;5036116;28;1502;-66
2024/01/10 06:59:29;;;;;;;;;;;17.70;59.40;;;;;;5037973;28;1354;-64
2024/01/10 07:02:00;;;;;;;;;;;17.70;59.40;;;;;;5045682;28;1479;-67
2024/01/10 07:04:27;;;;;;;;;;;17.70;59.50;;;;;;5041635;28;1350;-65
2024/01/10 07:06:53;;;;;;;;;;;17.70;59.50;;;;;;5041691;28;1286;-66
2024/01/10 07:09:19;;;;;;;;;;;17.70;59.50;;;;;;5042336;28;1469;-65
2024/01/10 07:11:48;;;;;;;;;;;17.70;59.50;;;;;;5039922;28;2265;-65
2024/01/10 07:14:14;;;;;;;;;;;17.70;59.50;;;;;;5040715;28;1972;-65
2024/01/10 07:16:42;;;;;;;;;;;17.70;59.60;;;;;;5041180;28;1255;-66
2024/01/10 07:19:13;;;;;;;;;;;17.70;59.60;;;;;;5039414;28;1641;-66
2024/01/10 07:21:41;;;;;;;;;;;17.70;59.60;;;;;;5071393;28;1199;-66
2024/01/10 07:24:09;;;;;;;;;;;17.70;59.60;;;;;;5071375;28;1550;-67
2024/01/10 07:26:34;;;;;;;;;;;17.70;59.60;;;;;;5040364;28;1586;-66
2024/01/10 07:29:02;;;;;;;;;;;17.70;59.60;;;;;;5042480;28;1477;-67
2024/01/10 07:31:30;;;;;;;;;;;17.70;59.70;;;;;;5040809;28;1606;-68
2024/01/10 07:33:56;;;;;;;;;;;17.60;59.60;;;;;;5043336;28;1968;-68
2024/01/10 07:36:23;;;;;;;;;;;17.70;59.70;;;;;;5039769;28;1353;-68
2024/01/10 07:38:48;;;;;;;;;;;17.60;59.70;;;;;;5042742;28;1318;-67
2024/01/10 07:41:14;;;;;;;;;;;17.70;59.70;;;;;;5040188;28;1672;-66
2024/01/10 07:43:39;;;;;;;;;;;17.60;59.70;;;;;;5040881;28;1374;-65
2024/01/10 07:46:06;;;;;;;;;;;17.60;59.70;;;;;;5041673;28;1573;-66
2024/01/10 07:48:31;;;;;;;;;;;17.60;59.70;;;;;;5040480;28;1239;-66
2024/01/10 07:50:57;;;;;;;;;;;17.60;59.80;;;;;;5040942;28;1226;-66
2024/01/10 07:53:25;;;;;;;;;;;17.60;59.80;;;;;;5038683;28;1570;-67
2024/01/10 07:55:51;;;;;;;;;;;17.60;59.80;;;;;;5041847;28;1898;-66
2024/01/10 07:58:16;;;;;;;;;;;17.60;59.80;;;;;;5042572;28;1334;-65
2024/01/10 08:00:42;;;;;;;;;;;17.60;59.80;;;;;;5041764;28;1242;-65
2024/01/10 08:03:07;;;;;;;;;;;17.60;59.80;;;;;;5072201;28;1604;-65
2024/01/10 08:05:34;;;;;;;;;;;17.60;59.90;;;;;;5038552;28;1288;-66
2024/01/10 08:07:59;;;;;;;;;;;17.60;59.90;;;;;;5040355;28;1099;-67
2024/01/10 08:10:27;;;;;;;;;;;17.60;59.90;;;;;;5041311;28;1185;-67
2024/01/10 08:12:52;;;;;;;;;;;17.60;59.90;;;;;;5042781;28;1293;-66
2024/01/10 08:15:19;;;;;;;;;;;17.60;59.90;;;;;;5040361;28;1914;-67
2024/01/10 08:17:45;;;;;;;;;;;17.60;59.90;;;;;;5040066;28;963;-66
2024/01/10 08:20:10;;;;;;;;;;;17.60;60.00;;;;;;5038389;28;1299;-67
2024/01/10 08:22:36;;;;;;;;;;;17.60;59.90;;;;;;5058163;28;1506;-68
2024/01/10 08:25:02;;;;;;;;;;;17.60;60.00;;;;;;5047083;28;1638;-67
2024/01/10 08:27:28;;;;;;;;;;;17.50;59.90;;;;;;5041198;28;1236;-67
2024/01/10 08:29:53;;;;;;;;;;;17.60;60.00;;;;;;5040744;28;1371;-66
2024/01/10 08:32:21;;;;;;;;;;;17.60;60.00;;;;;;5039808;28;1529;-66
2024/01/10 08:34:48;;;;;;;;;;;17.60;60.00;;;;;;5037703;28;1890;-67
2024/01/10 08:37:14;;;;;;;;;;;17.50;60.00;;;;;;5039038;28;1529;-65
2024/01/10 08:39:39;;;;;;;;;;;17.50;59.90;;;;;;5072851;28;1644;-65
2024/01/10 08:42:05;;;;;;;;;;;17.50;59.90;;;;;;5041685;28;1653;-65
2024/01/10 08:44:30;;;;;;;;;;;17.60;60.00;;;;;;5040076;28;1378;-63
2024/01/10 08:46:56;;;;;;;;;;;17.60;60.00;;;;;;5040777;28;1299;-65
2024/01/10 08:49:21;;;;;;;;;;;17.60;59.90;;;;;;5037204;28;1557;-65
2024/01/10 08:51:46;;;;;;;;;;;17.60;59.90;;;;;;5038990;28;1517;-66
2024/01/10 08:54:16;;;;;;;;;;;17.60;59.90;;;;;;5041657;28;1902;-64
2024/01/10 08:56:48;;;;;;;;;;;17.60;59.90;;;;;;5074384;28;1379;-65
2024/01/10 08:59:14;;;;;;;;;;;17.60;59.80;;;;;;5040096;28;1170;-66
2024/01/10 09:01:39;;;;;;;;;;;17.60;59.80;;;;;;5069007;28;1388;-64
2024/01/10 09:04:05;;;;;;;;;;;17.60;59.80;;;;;;5039633;28;1401;-66
2024/01/10 09:06:31;;;;;;;;;;;17.60;59.70;;;;;;5038663;28;1555;-66
2024/01/10 09:08:57;;;;;;;;;;;17.60;59.70;;;;;;5068947;28;1385;-66
2024/01/10 09:11:22;;;;;;;;;;;17.60;59.70;;;;;;5037685;28;1253;-66
2024/01/10 09:13:49;;;;;;;;;;;17.70;59.70;;;;;;5039481;28;1910;-66
2024/01/10 09:16:14;;;;;;;;;;;17.70;59.70;;;;;;5039581;28;1217;-66
2024/01/10 09:18:40;;;;;;;;;;;17.70;59.60;;;;;;5038741;28;1277;-66
2024/01/10 09:21:07;;;;;;;;;;;17.70;59.60;;;;;;5038353;28;1540;-66
2024/01/10 09:23:33;;;;;;;;;;;17.70;59.60;;;;;;5039358;28;2079;-66
2024/01/10 09:25:58;;;;;;;;;;;17.70;59.50;;;;;;5039038;28;1299;-66
2024/01/10 09:28:24;;;;;;;;;;;17.70;59.50;;;;;;5019538;28;1291;-66
2024/01/10 09:30:51;;;;;;;;;;;17.70;59.50;;;;;;5047407;28;1481;-67
2024/01/10 09:33:17;;;;;;;;;;;17.70;59.50;;;;;;5040019;28;1544;-67
2024/01/10 09:35:42;;;;;;;;;;;17.70;59.40;;;;;;5038391;28;2333;-66
2024/01/10 09:38:08;;;;;;;;;;;17.70;59.40;;;;;;5036190;28;1648;-67
2024/01/10 09:40:33;;;;;;;;;;;17.80;59.40;;;;;;5037568;28;1124;-66
2024/01/10 09:42:59;;;;;;;;;;;17.70;59.40;;;;;;5046097;28;1492;-66
2024/01/10 09:45:24;;;;;;;;;;;17.70;59.40;;;;;;5045979;28;1342;-66
2024/01/10 09:47:52;;;;;;;;;;;17.80;59.40;;;;;;5037182;28;1261;-67
2024/01/10 09:50:17;;;;;;;;;;;17.80;59.40;;;;;;5070381;28;1446;-64
2024/01/10 09:52:52;;;;;;;;;;;17.80;59.40;;;;;;5039104;28;1374;-66
2024/01/10 09:55:21;;;;;;;;;;;17.80;59.40;;;;;;5034039;28;1902;-65
2024/01/10 09:57:46;;;;;;;;;;;17.80;59.40;;;;;;5037079;28;2326;-67
2024/01/10 10:00:12;;;;;;;;;;;17.80;59.40;;;;;;5040715;28;1308;-69
2024/01/10 10:02:38;;;;;;;;;;;17.80;59.30;;;;;;5037783;28;1689;-67
2024/01/10 10:05:08;;;;;;;;;;;17.80;59.30;;;;;;5038599;28;2345;-67
2024/01/10 10:07:48;;;;;;;;;;;17.80;59.40;;;;;;5037364;28;1300;-67
2024/01/10 10:10:15;;;;;;;;;;;17.80;59.30;;;;;;5039155;28;1415;-67
2024/01/10 10:12:41;;;;;;;;;;;17.80;59.30;;;;;;5040594;28;1313;-67
2024/01/10 10:15:10;;;;;;;;;;;17.80;59.30;;;;;;5037450;28;1967;-67
2024/01/10 10:17:35;;;;;;;;;;;17.80;59.30;;;;;;5021073;28;1671;-67
2024/01/10 10:20:04;;;;;;;;;;;17.80;59.20;;;;;;5037356;28;1232;-67
2024/01/10 10:22:29;;;;;;;;;;;17.80;59.30;;;;;;5069095;28;1108;-67
2024/01/10 10:24:56;;;;;;;;;;;17.80;59.30;;;;;;5068863;28;1320;-67
2024/01/10 10:27:21;;;;;;;;;;;17.80;59.30;;;;;;5040127;28;1579;-67
2024/01/10 10:29:47;;;;;;;;;;;17.80;59.30;;;;;;5067071;28;1259;-67
2024/01/10 10:32:12;;;;;;;;;;;17.80;59.30;;;;;;5036407;28;1639;-68
2024/01/10 10:34:38;;;;;;;;;;;17.80;59.30;;;;;;5039439;28;1970;-68
2024/01/10 10:37:03;;;;;;;;;;;17.80;59.40;;;;;;5036806;28;2158;-69
2024/01/10 10:39:29;;;;;;;;;;;17.80;59.40;;;;;;5042986;28;1588;-69
2024/01/10 10:41:54;;;;;;;;;;;17.70;59.40;;;;;;5038898;28;1542;-69
2024/01/10 10:44:21;;;;;;;;;;;17.70;59.40;;;;;;5058803;28;1534;-69
2024/01/10 10:46:48;;;;;;;;;;;17.80;59.40;;;;;;5072940;28;1589;-69
2024/01/10 10:49:14;;;;;;;;;;;17.70;59.40;;;;;;5040929;28;1434;-68
2024/01/10 10:51:39;;;;;;;;;;;17.80;59.50;;;;;;5040849;28;1290;-68
2024/01/10 10:54:05;;;;;;;;;;;17.80;59.40;;;;;;5057726;28;1966;-68
2024/01/10 10:56:31;;;;;;;;;;;17.80;59.40;;;;;;5039486;28;1935;-68
2024/01/10 10:58:57;;;;;;;;;;;17.80;59.40;;;;;;5043244;28;2300;-68
2024/01/10 11:01:22;;;;;;;;;;;17.80;59.30;;;;;;5041350;28;851;-68
2024/01/10 11:03:48;;;;;;;;;;;17.80;59.80;;;;;;5040123;28;1457;-67
2024/01/10 11:06:13;;;;;;;;;;;17.80;59.20;;;;;;5073157;28;1334;-67
2024/01/10 11:08:57;;;;;;;;;;;17.80;59.20;;;;;;5072418;28;1373;-69
2024/01/10 11:11:31;;;;;;;;;;;17.80;59.20;;;;;;5049981;28;1657;-68
2024/01/10 11:14:17;;;;;;;;;;;17.80;59.20;;;;;;5042965;28;1982;-68
2024/01/10 11:16:49;;;;;;;;;;;17.80;59.20;;;;;;5070271;28;1457;-67
2024/01/10 11:19:30;;;;;;;;;;;17.80;59.10;;;;;;5048046;28;2289;-67
2024/01/10 11:22:07;;;;;;;;;;;17.80;59.10;;;;;;5043193;28;1454;-66
2024/01/10 11:24:33;;;;;;;;;;;17.80;59.10;;;;;;5046907;28;1402;-68
2024/01/10 11:27:10;;;;;;;;;;;17.90;59.20;;;;;;5041339;28;1360;-68
2024/01/10 11:29:39;;;;;;;;;;;17.80;59.10;;;;;;5040003;28;1404;-70
2024/01/10 11:32:14;;;;;;;;;;;17.80;59.10;;;;;;5039989;28;1372;-68
2024/01/10 11:34:59;;;;;;;;;;;17.80;59.10;;;;;;5045804;28;1898;-69
2024/01/10 11:37:28;;;;;;;;;;;17.80;59.10;;;;;;5040843;28;1287;-68
2024/01/10 11:39:54;;;;;;;;;;;17.80;59.10;;;;;;5068978;28;1534;-68
2024/01/10 11:42:23;;;;;;;;;;;17.80;59.10;;;;;;5038051;28;1684;-68
2024/01/10 11:44:51;;;;;;;;;;;17.80;59.10;;;;;;5039137;28;1486;-68
2024/01/10 11:47:20;;;;;;;;;;;17.80;59.10;;;;;;5048728;28;1638;-68
2024/01/10 11:49:55;;;;;;;;;;;17.80;59.10;;;;;;5070581;28;1532;-67
2024/01/10 11:52:21;;;;;;;;;;;17.80;59.10;;;;;;5054847;28;1357;-68
2024/01/10 11:54:47;;;;;;;;;;;17.80;59.10;;;;;;5040148;28;1898;-68
2024/01/10 11:57:22;;;;;;;;;;;17.80;59.10;;;;;;5042189;28;1537;-68
2024/01/10 11:59:49;;;;;;;;;;;17.80;59.00;;;;;;5047616;28;814;-68
2024/01/10 12:02:15;;;;;;;;;;;17.90;59.10;;;;;;5041677;28;1416;-68
2024/01/10 12:04:41;;;;;;;;;;;17.90;59.10;;;;;;5047682;28;1812;-68
2024/01/10 12:07:07;;;;;;;;;;;17.80;59.10;;;;;;5041491;28;1363;-68
2024/01/10 12:09:36;;;;;;;;;;;17.80;59.10;;;;;;5040132;28;1390;-67
2024/01/10 12:12:02;;;;;;;;;;;17.80;59.00;;;;;;5041575;28;1358;-68
2024/01/10 12:14:28;;;;;;;;;;;17.80;59.10;;;;;;5043881;28;1996;-68
2024/01/10 12:16:54;;;;;;;;;;;17.80;59.10;;;;;;5037206;28;1285;-68
2024/01/10 12:19:19;;;;;;;;;;;17.80;59.10;;;;;;5041077;28;1417;-68
2024/01/10 12:21:45;;;;;;;;;;;17.90;59.10;;;;;;5038258;28;1369;-68
2024/01/10 12:24:10;;;;;;;;;;;17.80;59.10;;;;;;5038795;28;1527;-68
2024/01/10 12:26:36;;;;;;;;;;;17.80;59.10;;;;;;5038325;28;1237;-68
2024/01/10 12:29:04;;;;;;;;;;;17.80;59.10;;;;;;5044864;28;1869;-68
2024/01/10 12:31:29;;;;;;;;;;;17.80;59.10;;;;;;5054843;28;1393;-67
2024/01/10 12:33:55;;;;;;;;;;;17.80;59.20;;;;;;5048043;28;1965;-68
2024/01/10 12:36:20;;;;;;;;;;;17.80;59.20;;;;;;5036719;28;1815;-68
2024/01/10 12:38:46;;;;;;;;;;;17.80;59.20;;;;;;5041857;28;1271;-68
2024/01/10 12:41:11;;;;;;;;;;;17.80;59.20;;;;;;5048103;28;1208;-68
2024/01/10 12:43:37;;;;;;;;;;;17.80;59.20;;;;;;5074060;28;1849;-68
2024/01/10 12:46:06;;;;;;;;;;;17.80;59.30;;;;;;5036977;28;1338;-67
2024/01/10 12:48:37;;;;;;;;;;;17.80;59.30;;;;;;5039249;28;1223;-68
2024/01/10 12:51:05;;;;;;;;;;;17.80;59.30;;;;;;5047413;28;1419;-68
2024/01/10 12:53:34;;;;;;;;;;;17.70;59.30;;;;;;5038333;28;1475;-68
2024/01/10 12:56:00;;;;;;;;;;;17.80;59.40;;;;;;5038353;28;2003;-67
2024/01/10 12:58:25;;;;;;;;;;;17.70;59.30;;;;;;5041169;28;1335;-66
2024/01/10 13:00:51;;;;;;;;;;;17.70;59.40;;;;;;5039703;28;1243;-68
2024/01/10 13:03:16;;;;;;;;;;;17.70;59.40;;;;;;5046095;28;1552;-67
2024/01/10 13:05:42;;;;;;;;;;;17.70;59.40;;;;;;5071737;28;1391;-67
2024/01/10 13:08:08;;;;;;;;;;;17.70;59.40;;;;;;5037357;28;1331;-67
2024/01/10 13:10:33;;;;;;;;;;;17.70;59.40;;;;;;5038850;28;1524;-68
2024/01/10 13:12:59;;;;;;;;;;;17.70;59.40;;;;;;5038776;28;1533;-68
2024/01/10 13:15:24;;;;;;;;;;;17.70;59.40;;;;;;5036542;28;1907;-68
2024/01/10 13:17:50;;;;;;;;;;;17.70;59.50;;;;;;5041708;28;1352;-68
2024/01/10 13:20:15;;;;;;;;;;;17.70;59.50;;;;;;5039446;28;1376;-68
2024/01/10 13:22:41;;;;;;;;;;;17.70;59.50;;;;;;5041861;28;1080;-68
2024/01/10 13:25:06;;;;;;;;;;;17.70;59.50;;;;;;5039357;28;1291;-68
2024/01/10 13:27:32;;;;;;;;;;;17.70;59.50;;;;;;5040633;28;1283;-68
2024/01/10 13:29:57;;;;;;;;;;;17.70;59.50;;;;;;5039285;28;1201;-68
2024/01/10 13:32:23;;;;;;;;;;;17.70;59.50;;;;;;5037170;28;1344;-68
2024/01/10 13:34:48;;;;;;;;;;;17.70;59.50;;;;;;5035999;28;1910;-68
2024/01/10 13:37:14;;;;;;;;;;;17.70;59.50;;;;;;5041104;28;1448;-68
2024/01/10 13:39:42;;;;;;;;;;;17.70;59.50;;;;;;5038303;28;1687;-68
2024/01/10 13:42:10;;;;;;;;;;;17.70;59.50;;;;;;5038061;28;1121;-68
2024/01/10 13:44:36;;;;;;;;;;;17.70;59.50;;;;;;5042721;28;1280;-68
2024/01/10 13:47:03;;;;;;;;;;;17.70;59.50;;;;;;5039575;28;1447;-68
2024/01/10 13:49:29;;;;;;;;;;;17.70;59.50;;;;;;5038740;28;1454;-68
2024/01/10 13:51:54;;;;;;;;;;;17.70;59.50;;;;;;5038675;28;1391;-68
2024/01/10 13:54:20;;;;;;;;;;;17.70;59.50;;;;;;5040798;28;2024;-68
2024/01/10 13:56:46;;;;;;;;;;;17.70;59.50;;;;;;5038463;28;1440;-67
2024/01/10 13:59:11;;;;;;;;;;;17.70;60.10;;;;;;5037708;28;1364;-68
2024/01/10 14:01:36;;;;;;;;;;;17.70;59.50;;;;;;5038879;28;1575;-67
2024/01/10 14:04:02;;;;;;;;;;;17.60;59.50;;;;;;5039450;28;1421;-68
2024/01/10 14:06:28;;;;;;;;;;;17.70;59.50;;;;;;5040337;28;1565;-68
2024/01/10 14:08:53;;;;;;;;;;;17.70;59.50;;;;;;5037472;28;1266;-68
2024/01/10 14:11:19;;;;;;;;;;;17.70;59.50;;;;;;5071381;28;1637;-68
2024/01/10 14:13:45;;;;;;;;;;;17.70;59.50;;;;;;5040062;28;1561;-68
2024/01/10 14:16:10;;;;;;;;;;;17.70;59.50;;;;;;5038591;28;2259;-67
2024/01/10 14:18:36;;;;;;;;;;;17.70;59.50;;;;;;5041248;28;1484;-68
2024/01/10 14:21:02;;;;;;;;;;;17.70;59.50;;;;;;5041277;28;1401;-68
2024/01/10 14:23:27;;;;;;;;;;;17.70;59.50;;;;;;5038161;28;1333;-68
2024/01/10 14:25:53;;;;;;;;;;;17.70;59.50;;;;;;5038466;28;1760;-68